Buoy 46928

sailwx.info

Track history (hours):
 
Tides and Currents Weather Stations Pressure Air Temp Water Temp Dewpoint Dewpoint Depression Visibility Wind Speed Wind Dir Waves Ship Positions

Drifting buoy 46928

Last reported at 2014-Nov-21 14:30 UTC. Time now 2014-Nov-21 16:32 UTC.
Position N 45°59' W 144°34'.

Barometer 999.3 mb
Water temperature 11.8 ° C

Date/timePositionNaut miles runAvg speedWind from/ knotsBaromVisibWave heightAir tempDewpointWater temp
2014-Nov-21 14:30N 45°59' W 144°34'3 2.8 999.3 11.8
2014-Nov-21 13:30N 46°01' W 144°38'1 1.0 999.2 11.8
2014-Nov-21 12:30N 46°01' W 144°39'4 4.5 999.3 11.8
2014-Nov-21 11:30N 45°58' W 144°44'0 0.0 999.4 11.8
2014-Nov-21 09:30N 45°58' W 144°44'0 0.0 999.4 11.9
2014-Nov-21 07:30N 45°58' W 144°44'0 0.4 999.1 11.9
2014-Nov-21 06:30N 45°58' W 144°43'1 0.3 999.1 11.9
2014-Nov-21 04:30N 45°58' W 144°43'0 0.2 999.4 11.9
2014-Nov-21 02:30N 45°58' W 144°43'0 0.0 999.1 11.9
2014-Nov-21 01:30N 45°58' W 144°43'1 1.5 998.8 11.9
2014-Nov-21 00:30N 45°59' W 144°44'0 0.0 998.6 11.9
2014-Nov-20 23:30N 45°59' W 144°44'1 1.3 998.1 11.9
2014-Nov-20 22:30N 46°00' W 144°44'0 0.1 998.0 11.9
2014-Nov-20 21:30N 45°60' W 144°44'2 2.1 997.7 11.9
2014-Nov-20 20:30N 46°00' W 144°47'1 0.7 997.3 11.8
2014-Nov-20 18:30N 46°01' W 144°49'2 1.0 995.5 11.8
2014-Nov-20 16:30N 45°59' W 144°52'1 1.2 992.7 11.8
2014-Nov-20 15:30N 45°59' W 144°50'1 1.1 992.8 11.7
2014-Nov-20 14:30N 45°58' W 144°51'0 0.4 994.2 11.6
2014-Nov-20 13:30N 45°58' W 144°50'1 0.6 997.0 11.6
2014-Nov-20 11:30N 45°56' W 144°50'1 0.6 1002.8 11.6
2014-Nov-20 09:30N 45°56' W 144°52'0 0.0 1007.1 11.6
2014-Nov-20 07:30N 45°56' W 144°52'1 1.3 1008.7 11.6
2014-Nov-20 06:30N 45°55' W 144°53'1 0.5 1009.5 11.7
2014-Nov-20 04:30N 45°55' W 144°54'1 0.7 1012.0 11.7
2014-Nov-20 03:30N 45°54' W 144°53'0 0.4 1012.1 11.8
2014-Nov-20 02:30N 45°54' W 144°54'1 1.3 1012.3 11.8
2014-Nov-20 01:30N 45°53' W 144°55'0 0.5 1011.7 11.8
2014-Nov-20 00:30N 45°53' W 144°56'0 0.0 1011.4 11.8
2014-Nov-19 23:30N 45°53' W 144°56'1 0.4 1011.6 11.8
2014-Nov-19 21:30N 45°52' W 144°55'1 0.6 1011.3 11.7
2014-Nov-19 20:30N 45°53' W 144°55'0 0.0 1011.3 11.7
2014-Nov-19 19:30N 45°53' W 144°55'1 0.4 1010.9 11.7
2014-Nov-19 17:30N 45°53' W 144°56'1 0.8 1010.4 11.7
2014-Nov-19 16:30N 45°53' W 144°55'1 0.7 1010.3 11.7
2014-Nov-19 15:30N 45°52' W 144°56'0 0.0 1010.3 11.7
2014-Nov-19 14:30N 45°52' W 144°56'2 1.8 1010.4 11.7
2014-Nov-19 13:30N 45°50' W 144°56'1 0.6 1010.7 11.7
2014-Nov-19 11:30N 45°49' W 144°57'0 0.1 1011.4 11.7
2014-Nov-19 09:30N 45°49' W 144°57'0 0.1 1013.2 11.7
2014-Nov-19 06:30N 45°49' W 144°58'0 0.0 1014.7 11.7
2014-Nov-19 05:30N 45°49' W 144°58'0 0.0 1014.7 11.7
2014-Nov-19 04:30N 45°49' W 144°58'2 1.0 1015.2 11.7
2014-Nov-19 02:30N 45°49' W 145°01'0 0.0 1014.9 11.8
2014-Nov-19 01:30N 45°49' W 145°01'0 0.0 1015.0 11.8
2014-Nov-19 00:30N 45°49' W 145°01'0 0.4 1015.2 11.8
2014-Nov-18 23:30N 45°49' W 145°01'0 0.2 1014.8 11.8
2014-Nov-18 21:30N 45°49' W 145°02'0 0.4 1014.6 11.8
2014-Nov-18 20:30N 45°49' W 145°02'2 1.8 1014.5 11.8
2014-Nov-18 19:30N 45°49' W 145°05'1 0.2 1014.0 11.8
2014-Nov-18 15:30N 45°49' W 145°06'0 0.0 1011.1 11.8
2014-Nov-18 14:30N 45°49' W 145°06'0 0.4 1010.2 11.8
2014-Nov-18 13:30N 45°49' W 145°05'2 1.0 1009.6 11.8
2014-Nov-18 11:30N 45°50' W 145°08'0 0.0 1007.8 11.8
2014-Nov-18 10:30N 45°50' W 145°08'1 0.6 1006.8 11.8
2014-Nov-18 08:30N 45°51' W 145°08'1 1.4 1004.5 11.8
2014-Nov-18 07:30N 45°52' W 145°10'0 0.0 1003.1 11.8
2014-Nov-18 06:30N 45°52' W 145°10'1 0.6 1002.1 11.8
2014-Nov-18 04:30N 45°52' W 145°12'2 1.2 1000.7 11.8
2014-Nov-18 02:30N 45°52' W 145°15'0 0.1 999.1 11.8
2014-Nov-18 01:30N 45°52' W 145°16'1 1.1 997.8 11.8
2014-Nov-18 00:30N 45°52' W 145°17'1 0.8 997.2 11.8
2014-Nov-17 23:30N 45°52' W 145°17'0 0.0 996.4 11.8
2014-Nov-17 21:30N 45°52' W 145°17'2 1.0 995.9 11.8
2014-Nov-17 19:30N 45°53' W 145°16'0 0.0 997.3 11.8
2014-Nov-17 18:30N 45°53' W 145°16'0 0.0 997.9 11.8
2014-Nov-17 16:30N 45°53' W 145°16'2 1.7 999.5 11.8
2014-Nov-17 15:30N 45°55' W 145°18'1 0.7 1000.5 11.8
2014-Nov-17 14:30N 45°54' W 145°17'1 0.6 1001.5 11.8
2014-Nov-17 13:30N 45°55' W 145°17'2 1.8 1002.5 11.8
2014-Nov-17 12:30N 45°53' W 145°18'1 0.7 1004.0 11.8
2014-Nov-17 10:30N 45°52' W 145°17'0 0.0 1006.3 11.9
2014-Nov-17 08:30N 45°52' W 145°17'1 0.7 1009.0 11.9
2014-Nov-17 07:30N 45°52' W 145°16'1 0.4 1010.0 11.9
2014-Nov-17 05:30N 45°52' W 145°15'1 0.6 1011.7 11.8
2014-Nov-17 04:30N 45°53' W 145°14'0 0.1 1012.2 11.8
2014-Nov-17 03:30N 45°53' W 145°14'1 0.6 1012.6 11.8
2014-Nov-17 02:30N 45°53' W 145°14'1 0.7 1013.3 11.8
2014-Nov-17 01:30N 45°53' W 145°15'0 0.2 1013.3 11.8
2014-Nov-16 23:30N 45°52' W 145°15'0 0.0 1014.5 11.7
2014-Nov-16 21:30N 45°52' W 145°15'1 0.9 1015.8 11.7
2014-Nov-16 20:30N 45°52' W 145°15'0 0.0 1016.6 11.7
2014-Nov-16 19:30N 45°52' W 145°15'0 0.0 1016.7 11.7
2014-Nov-16 18:30N 45°52' W 145°15'0 0.1 1016.5 11.7
2014-Nov-16 15:30N 45°52' W 145°14'1 1.1 1016.0 11.7
2014-Nov-16 14:30N 45°52' W 145°16'0 0.5 1015.9 11.7
2014-Nov-16 13:30N 45°52' W 145°16'0 0.0 1015.8 11.7
2014-Nov-16 12:30N 45°52' W 145°16'1 0.5 1015.4 11.7
2014-Nov-16 11:30N 45°52' W 145°17'1 1.3 1015.1 11.7
2014-Nov-16 10:30N 45°52' W 145°19'0 0.0 1014.5 11.7
2014-Nov-16 07:30N 45°52' W 145°19'1 0.7 1012.4 11.8
2014-Nov-16 06:30N 45°52' W 145°19'1 0.7 1011.7 11.8
2014-Nov-16 05:30N 45°53' W 145°20'1 0.5 1010.4 11.9
2014-Nov-16 03:30N 45°52' W 145°21'0 0.0 1007.5 12.0
2014-Nov-16 02:30N 45°52' W 145°21'1 1.3 1005.9 12.0
2014-Nov-16 01:30N 45°52' W 145°23'0 0.0 1004.5 12.0
2014-Nov-16 00:30N 45°52' W 145°23'2 0.8 1002.7 12.0
2014-Nov-15 22:30N 45°52' W 145°25'2 0.8 997.9 11.9
2014-Nov-15 20:30N 45°52' W 145°28'1 0.6 995.8 11.9
2014-Nov-15 18:30N 45°51' W 145°27'1 0.4 992.5 11.9
2014-Nov-15 15:30N 45°52' W 145°28'1 0.7 992.4 11.9
2014-Nov-15 14:30N 45°53' W 145°28'1 0.7 993.2 11.9
2014-Nov-15 13:30N 45°52' W 145°29'0 0.4 993.8 11.9
2014-Nov-15 12:30N 45°52' W 145°29'3 1.3 995.4 12.0
2014-Nov-15 10:30N 45°50' W 145°31'0 0.0 998.9 12.0
2014-Nov-15 07:30N 45°50' W 145°31'1 1.3 1003.0 11.9
2014-Nov-15 06:30N 45°49' W 145°30'1 0.8 1003.6 11.9
2014-Nov-15 05:30N 45°49' W 145°29'1 0.7 1003.8 11.8
2014-Nov-15 04:30N 45°49' W 145°28'1 0.6 1004.8 11.8
2014-Nov-15 03:30N 45°49' W 145°28'0 0.3 1005.0 11.8
2014-Nov-15 02:30N 45°49' W 145°28'0 0.2 1004.9 11.8
2014-Nov-15 01:30N 45°49' W 145°28'1 0.6 1006.0 11.8
2014-Nov-15 00:30N 45°49' W 145°28'1 0.7 1006.5 11.8
2014-Nov-14 23:30N 45°49' W 145°28'1 1.0 1007.1 11.8
2014-Nov-14 22:30N 45°49' W 145°29'0 0.0 1007.8 11.8
2014-Nov-14 20:30N 45°49' W 145°29'3 2.9 1009.7 11.8
2014-Nov-14 19:30N 45°49' W 145°34'0 0.0 1009.5 11.8
2014-Nov-14 18:30N 45°49' W 145°34'1 0.7 1009.5 11.8
2014-Nov-14 17:30N 45°49' W 145°33'0 0.4 1009.3 11.8
2014-Nov-14 16:30N 45°49' W 145°32'0 0.3 1008.9 11.8
2014-Nov-14 15:30N 45°48' W 145°33'0 0.5 1009.0 11.8
2014-Nov-14 14:30N 45°48' W 145°32'1 0.3 1009.2 11.8
2014-Nov-14 12:30N 45°49' W 145°32'1 0.4 1008.9 11.8
2014-Nov-14 10:30N 45°49' W 145°34'3 0.5 1008.5 11.9
2014-Nov-14 05:30N 45°51' W 145°35'2 1.7 1005.5 12.0
2014-Nov-14 04:30N 45°52' W 145°37'0 0.0 1004.7 12.0
2014-Nov-14 03:30N 45°52' W 145°37'2 2.2 1003.3 12.0
2014-Nov-14 02:30N 45°52' W 145°40'1 0.5 1002.3 12.0
2014-Nov-14 00:30N 45°53' W 145°39'1 1.2 1000.4 12.0
2014-Nov-13 23:30N 45°52' W 145°41'1 0.7 999.2 12.0
2014-Nov-13 22:30N 45°51' W 145°41'2 0.9 998.6 12.0
2014-Nov-13 20:30N 45°50' W 145°38'2 1.7 999.1 12.0
2014-Nov-13 19:30N 45°50' W 145°41'0 0.0 999.4 12.0
2014-Nov-13 18:30N 45°50' W 145°41'1 0.3 999.7 12.0
2014-Nov-13 16:30N 45°51' W 145°41'0 0.0 1000.0 12.0
2014-Nov-13 15:30N 45°51' W 145°41'1 0.8 1000.1 12.0
2014-Nov-13 14:30N 45°51' W 145°42'1 0.7 1000.6 12.0
2014-Nov-13 13:30N 45°50' W 145°43'1 1.3 1000.7 12.0
2014-Nov-13 12:30N 45°50' W 145°41'4 2.2 1000.8 12.0
2014-Nov-13 10:30N 45°49' W 145°47'0 0.0 1000.6 12.0
2014-Nov-13 08:30N 45°49' W 145°47'1 1.0 1000.3 12.0
2014-Nov-13 07:30N 45°49' W 145°48'1 0.7 999.7 12.0
2014-Nov-13 06:30N 45°48' W 145°47'0 0.4 998.9 12.0
2014-Nov-13 05:30N 45°48' W 145°47'1 0.7 998.2 12.0
2014-Nov-13 04:30N 45°49' W 145°47'0 0.2 997.4 12.0
2014-Nov-13 02:30N 45°49' W 145°46'5 2.6 995.5 12.1
2014-Nov-13 00:30N 45°52' W 145°52'0 0.0 993.6 12.1
2014-Nov-12 22:30N 45°52' W 145°52'1 0.7 992.3 12.0
2014-Nov-12 20:30N 45°52' W 145°53'0 0.5 991.9 12.0
2014-Nov-12 19:30N 45°52' W 145°54'1 0.7 991.5 12.0
2014-Nov-12 18:30N 45°51' W 145°53'2 0.7 991.2 12.0
2014-Nov-12 15:30N 45°49' W 145°55'1 0.6 989.7 12.0
2014-Nov-12 13:30N 45°49' W 145°53'1 0.7 989.3 12.0
2014-Nov-12 12:30N 45°49' W 145°52'0 0.3 989.1 12.0
2014-Nov-12 11:30N 45°49' W 145°53'1 0.7 989.9 12.0
2014-Nov-12 09:30N 45°50' W 145°52'1 0.2 991.1 12.0
2014-Nov-12 06:30N 45°51' W 145°52'1 0.7 992.7 12.1
2014-Nov-12 05:30N 45°52' W 145°52'2 1.6 992.6 12.0
2014-Nov-12 04:30N 45°51' W 145°54'1 0.8 992.7 12.1
2014-Nov-12 03:30N 45°51' W 145°55'1 1.3 992.0 12.0
2014-Nov-12 02:30N 45°51' W 145°57'2 1.2 991.1 12.1
2014-Nov-12 00:30N 45°49' W 145°57'0 0.2 989.5 12.0
2014-Nov-11 23:30N 45°49' W 145°57'1 1.5 988.7 12.0
2014-Nov-11 22:30N 45°47' W 145°56'0 0.0 988.5 12.0
2014-Nov-11 21:30N 45°47' W 145°56'2 1.8 988.4 12.0
2014-Nov-11 20:30N 45°47' W 145°53'0 0.0 989.2 12.0
2014-Nov-11 19:30N 45°47' W 145°53'0 0.0 989.9 12.0
2014-Nov-11 18:30N 45°47' W 145°53'1 0.4 990.7 12.0
2014-Nov-11 16:30N 45°46' W 145°53'1 0.6 992.7 12.1
2014-Nov-11 15:30N 45°47' W 145°53'0 0.3 993.8 12.0
2014-Nov-11 14:30N 45°47' W 145°52'   995.1 12.0
Track history (hours):
 
Tides and Currents Weather Stations Pressure Air Temp Water Temp Dewpoint Dewpoint Depression Visibility Wind Speed Wind Dir Waves Ship Positions

Drifting buoy 46928

Last reported at 2014-Nov-21 14:30 UTC. Time now 2014-Nov-21 16:32 UTC.
Position N 45°59' W 144°34'.

Barometer 999.3 mb
Water temperature 11.8 ° C

Date/timePositionNaut miles runAvg speedWind from/ knotsBaromVisibWave heightAir tempDewpointWater temp
2014-Nov-21 14:30N 45°59' W 144°34'3 2.8 999.3 11.8
2014-Nov-21 13:30N 46°01' W 144°38'1 1.0 999.2 11.8
2014-Nov-21 12:30N 46°01' W 144°39'4 4.5 999.3 11.8
2014-Nov-21 11:30N 45°58' W 144°44'0 0.0 999.4 11.8
2014-Nov-21 09:30N 45°58' W 144°44'0 0.0 999.4 11.9
2014-Nov-21 07:30N 45°58' W 144°44'0 0.4 999.1 11.9
2014-Nov-21 06:30N 45°58' W 144°43'1 0.3 999.1 11.9
2014-Nov-21 04:30N 45°58' W 144°43'0 0.2 999.4 11.9
2014-Nov-21 02:30N 45°58' W 144°43'0 0.0 999.1 11.9
2014-Nov-21 01:30N 45°58' W 144°43'1 1.5 998.8 11.9
2014-Nov-21 00:30N 45°59' W 144°44'0 0.0 998.6 11.9
2014-Nov-20 23:30N 45°59' W 144°44'1 1.3 998.1 11.9
2014-Nov-20 22:30N 46°00' W 144°44'0 0.1 998.0 11.9
2014-Nov-20 21:30N 45°60' W 144°44'2 2.1 997.7 11.9
2014-Nov-20 20:30N 46°00' W 144°47'1 0.7 997.3 11.8
2014-Nov-20 18:30N 46°01' W 144°49'2 1.0 995.5 11.8
2014-Nov-20 16:30N 45°59' W 144°52'1 1.2 992.7 11.8
2014-Nov-20 15:30N 45°59' W 144°50'1 1.1 992.8 11.7
2014-Nov-20 14:30N 45°58' W 144°51'0 0.4 994.2 11.6
2014-Nov-20 13:30N 45°58' W 144°50'1 0.6 997.0 11.6
2014-Nov-20 11:30N 45°56' W 144°50'1 0.6 1002.8 11.6
2014-Nov-20 09:30N 45°56' W 144°52'0 0.0 1007.1 11.6
2014-Nov-20 07:30N 45°56' W 144°52'1 1.3 1008.7 11.6
2014-Nov-20 06:30N 45°55' W 144°53'1 0.5 1009.5 11.7
2014-Nov-20 04:30N 45°55' W 144°54'1 0.7 1012.0 11.7
2014-Nov-20 03:30N 45°54' W 144°53'0 0.4 1012.1 11.8
2014-Nov-20 02:30N 45°54' W 144°54'1 1.3 1012.3 11.8
2014-Nov-20 01:30N 45°53' W 144°55'0 0.5 1011.7 11.8
2014-Nov-20 00:30N 45°53' W 144°56'0 0.0 1011.4 11.8
2014-Nov-19 23:30N 45°53' W 144°56'1 0.4 1011.6 11.8
2014-Nov-19 21:30N 45°52' W 144°55'1 0.6 1011.3 11.7
2014-Nov-19 20:30N 45°53' W 144°55'0 0.0 1011.3 11.7
2014-Nov-19 19:30N 45°53' W 144°55'1 0.4 1010.9 11.7
2014-Nov-19 17:30N 45°53' W 144°56'1 0.8 1010.4 11.7
2014-Nov-19 16:30N 45°53' W 144°55'1 0.7 1010.3 11.7
2014-Nov-19 15:30N 45°52' W 144°56'0 0.0 1010.3 11.7
2014-Nov-19 14:30N 45°52' W 144°56'2 1.8 1010.4 11.7
2014-Nov-19 13:30N 45°50' W 144°56'1 0.6 1010.7 11.7
2014-Nov-19 11:30N 45°49' W 144°57'0 0.1 1011.4 11.7
2014-Nov-19 09:30N 45°49' W 144°57'0 0.1 1013.2 11.7
2014-Nov-19 06:30N 45°49' W 144°58'0 0.0 1014.7 11.7
2014-Nov-19 05:30N 45°49' W 144°58'0 0.0 1014.7 11.7
2014-Nov-19 04:30N 45°49' W 144°58'2 1.0 1015.2 11.7
2014-Nov-19 02:30N 45°49' W 145°01'0 0.0 1014.9 11.8
2014-Nov-19 01:30N 45°49' W 145°01'0 0.0 1015.0 11.8
2014-Nov-19 00:30N 45°49' W 145°01'0 0.4 1015.2 11.8
2014-Nov-18 23:30N 45°49' W 145°01'0 0.2 1014.8 11.8
2014-Nov-18 21:30N 45°49' W 145°02'0 0.4 1014.6 11.8
2014-Nov-18 20:30N 45°49' W 145°02'2 1.8 1014.5 11.8
2014-Nov-18 19:30N 45°49' W 145°05'1 0.2 1014.0 11.8
2014-Nov-18 15:30N 45°49' W 145°06'0 0.0 1011.1 11.8
2014-Nov-18 14:30N 45°49' W 145°06'0 0.4 1010.2 11.8
2014-Nov-18 13:30N 45°49' W 145°05'2 1.0 1009.6 11.8
2014-Nov-18 11:30N 45°50' W 145°08'0 0.0 1007.8 11.8
2014-Nov-18 10:30N 45°50' W 145°08'1 0.6 1006.8 11.8
2014-Nov-18 08:30N 45°51' W 145°08'1 1.4 1004.5 11.8
2014-Nov-18 07:30N 45°52' W 145°10'0 0.0 1003.1 11.8
2014-Nov-18 06:30N 45°52' W 145°10'1 0.6 1002.1 11.8
2014-Nov-18 04:30N 45°52' W 145°12'2 1.2 1000.7 11.8
2014-Nov-18 02:30N 45°52' W 145°15'0 0.1 999.1 11.8
2014-Nov-18 01:30N 45°52' W 145°16'1 1.1 997.8 11.8
2014-Nov-18 00:30N 45°52' W 145°17'1 0.8 997.2 11.8
2014-Nov-17 23:30N 45°52' W 145°17'0 0.0 996.4 11.8
2014-Nov-17 21:30N 45°52' W 145°17'2 1.0 995.9 11.8
2014-Nov-17 19:30N 45°53' W 145°16'0 0.0 997.3 11.8
2014-Nov-17 18:30N 45°53' W 145°16'0 0.0 997.9 11.8
2014-Nov-17 16:30N 45°53' W 145°16'2 1.7 999.5 11.8
2014-Nov-17 15:30N 45°55' W 145°18'1 0.7 1000.5 11.8
2014-Nov-17 14:30N 45°54' W 145°17'1 0.6 1001.5 11.8
2014-Nov-17 13:30N 45°55' W 145°17'2 1.8 1002.5 11.8
2014-Nov-17 12:30N 45°53' W 145°18'1 0.7 1004.0 11.8
2014-Nov-17 10:30N 45°52' W 145°17'0 0.0 1006.3 11.9
2014-Nov-17 08:30N 45°52' W 145°17'1 0.7 1009.0 11.9
2014-Nov-17 07:30N 45°52' W 145°16'1 0.4 1010.0 11.9
2014-Nov-17 05:30N 45°52' W 145°15'1 0.6 1011.7 11.8
2014-Nov-17 04:30N 45°53' W 145°14'0 0.1 1012.2 11.8
2014-Nov-17 03:30N 45°53' W 145°14'1 0.6 1012.6 11.8
2014-Nov-17 02:30N 45°53' W 145°14'1 0.7 1013.3 11.8
2014-Nov-17 01:30N 45°53' W 145°15'0 0.2 1013.3 11.8
2014-Nov-16 23:30N 45°52' W 145°15'0 0.0 1014.5 11.7
2014-Nov-16 21:30N 45°52' W 145°15'1 0.9 1015.8 11.7
2014-Nov-16 20:30N 45°52' W 145°15'0 0.0 1016.6 11.7
2014-Nov-16 19:30N 45°52' W 145°15'0 0.0 1016.7 11.7
2014-Nov-16 18:30N 45°52' W 145°15'0 0.1 1016.5 11.7
2014-Nov-16 15:30N 45°52' W 145°14'1 1.1 1016.0 11.7
2014-Nov-16 14:30N 45°52' W 145°16'0 0.5 1015.9 11.7
2014-Nov-16 13:30N 45°52' W 145°16'0 0.0 1015.8 11.7
2014-Nov-16 12:30N 45°52' W 145°16'1 0.5 1015.4 11.7
2014-Nov-16 11:30N 45°52' W 145°17'1 1.3 1015.1 11.7
2014-Nov-16 10:30N 45°52' W 145°19'0 0.0 1014.5 11.7
2014-Nov-16 07:30N 45°52' W 145°19'1 0.7 1012.4 11.8
2014-Nov-16 06:30N 45°52' W 145°19'1 0.7 1011.7 11.8
2014-Nov-16 05:30N 45°53' W 145°20'1 0.5 1010.4 11.9
2014-Nov-16 03:30N 45°52' W 145°21'0 0.0 1007.5 12.0
2014-Nov-16 02:30N 45°52' W 145°21'1 1.3 1005.9 12.0
2014-Nov-16 01:30N 45°52' W 145°23'0 0.0 1004.5 12.0
2014-Nov-16 00:30N 45°52' W 145°23'2 0.8 1002.7 12.0
2014-Nov-15 22:30N 45°52' W 145°25'2 0.8 997.9 11.9
2014-Nov-15 20:30N 45°52' W 145°28'1 0.6 995.8 11.9
2014-Nov-15 18:30N 45°51' W 145°27'1 0.4 992.5 11.9
2014-Nov-15 15:30N 45°52' W 145°28'1 0.7 992.4 11.9
2014-Nov-15 14:30N 45°53' W 145°28'1 0.7 993.2 11.9
2014-Nov-15 13:30N 45°52' W 145°29'0 0.4 993.8 11.9
2014-Nov-15 12:30N 45°52' W 145°29'3 1.3 995.4 12.0
2014-Nov-15 10:30N 45°50' W 145°31'0 0.0 998.9 12.0
2014-Nov-15 07:30N 45°50' W 145°31'1 1.3 1003.0 11.9
2014-Nov-15 06:30N 45°49' W 145°30'1 0.8 1003.6 11.9
2014-Nov-15 05:30N 45°49' W 145°29'1 0.7 1003.8 11.8
2014-Nov-15 04:30N 45°49' W 145°28'1 0.6 1004.8 11.8
2014-Nov-15 03:30N 45°49' W 145°28'0 0.3 1005.0 11.8
2014-Nov-15 02:30N 45°49' W 145°28'0 0.2 1004.9 11.8
2014-Nov-15 01:30N 45°49' W 145°28'1 0.6 1006.0 11.8
2014-Nov-15 00:30N 45°49' W 145°28'1 0.7 1006.5 11.8
2014-Nov-14 23:30N 45°49' W 145°28'1 1.0 1007.1 11.8
2014-Nov-14 22:30N 45°49' W 145°29'0 0.0 1007.8 11.8
2014-Nov-14 20:30N 45°49' W 145°29'3 2.9 1009.7 11.8
2014-Nov-14 19:30N 45°49' W 145°34'0 0.0 1009.5 11.8
2014-Nov-14 18:30N 45°49' W 145°34'1 0.7 1009.5 11.8
2014-Nov-14 17:30N 45°49' W 145°33'0 0.4 1009.3 11.8
2014-Nov-14 16:30N 45°49' W 145°32'0 0.3 1008.9 11.8
2014-Nov-14 15:30N 45°48' W 145°33'0 0.5 1009.0 11.8
2014-Nov-14 14:30N 45°48' W 145°32'1 0.3 1009.2 11.8
2014-Nov-14 12:30N 45°49' W 145°32'1 0.4 1008.9 11.8
2014-Nov-14 10:30N 45°49' W 145°34'3 0.5 1008.5 11.9
2014-Nov-14 05:30N 45°51' W 145°35'2 1.7 1005.5 12.0
2014-Nov-14 04:30N 45°52' W 145°37'0 0.0 1004.7 12.0
2014-Nov-14 03:30N 45°52' W 145°37'2 2.2 1003.3 12.0
2014-Nov-14 02:30N 45°52' W 145°40'1 0.5 1002.3 12.0
2014-Nov-14 00:30N 45°53' W 145°39'1 1.2 1000.4 12.0
2014-Nov-13 23:30N 45°52' W 145°41'1 0.7 999.2 12.0
2014-Nov-13 22:30N 45°51' W 145°41'2 0.9 998.6 12.0
2014-Nov-13 20:30N 45°50' W 145°38'2 1.7 999.1 12.0
2014-Nov-13 19:30N 45°50' W 145°41'0 0.0 999.4 12.0
2014-Nov-13 18:30N 45°50' W 145°41'1 0.3 999.7 12.0
2014-Nov-13 16:30N 45°51' W 145°41'0 0.0 1000.0 12.0
2014-Nov-13 15:30N 45°51' W 145°41'1 0.8 1000.1 12.0
2014-Nov-13 14:30N 45°51' W 145°42'1 0.7 1000.6 12.0
2014-Nov-13 13:30N 45°50' W 145°43'1 1.3 1000.7 12.0
2014-Nov-13 12:30N 45°50' W 145°41'4 2.2 1000.8 12.0
2014-Nov-13 10:30N 45°49' W 145°47'0 0.0 1000.6 12.0
2014-Nov-13 08:30N 45°49' W 145°47'1 1.0 1000.3 12.0
2014-Nov-13 07:30N 45°49' W 145°48'1 0.7 999.7 12.0
2014-Nov-13 06:30N 45°48' W 145°47'0 0.4 998.9 12.0
2014-Nov-13 05:30N 45°48' W 145°47'1 0.7 998.2 12.0
2014-Nov-13 04:30N 45°49' W 145°47'0 0.2 997.4 12.0
2014-Nov-13 02:30N 45°49' W 145°46'5 2.6 995.5 12.1
2014-Nov-13 00:30N 45°52' W 145°52'0 0.0 993.6 12.1
2014-Nov-12 22:30N 45°52' W 145°52'1 0.7 992.3 12.0
2014-Nov-12 20:30N 45°52' W 145°53'0 0.5 991.9 12.0
2014-Nov-12 19:30N 45°52' W 145°54'1 0.7 991.5 12.0
2014-Nov-12 18:30N 45°51' W 145°53'2 0.7 991.2 12.0
2014-Nov-12 15:30N 45°49' W 145°55'1 0.6 989.7 12.0
2014-Nov-12 13:30N 45°49' W 145°53'1 0.7 989.3 12.0
2014-Nov-12 12:30N 45°49' W 145°52'0 0.3 989.1 12.0
2014-Nov-12 11:30N 45°49' W 145°53'1 0.7 989.9 12.0
2014-Nov-12 09:30N 45°50' W 145°52'1 0.2 991.1 12.0
2014-Nov-12 06:30N 45°51' W 145°52'1 0.7 992.7 12.1
2014-Nov-12 05:30N 45°52' W 145°52'2 1.6 992.6 12.0
2014-Nov-12 04:30N 45°51' W 145°54'1 0.8 992.7 12.1
2014-Nov-12 03:30N 45°51' W 145°55'1 1.3 992.0 12.0
2014-Nov-12 02:30N 45°51' W 145°57'2 1.2 991.1 12.1
2014-Nov-12 00:30N 45°49' W 145°57'0 0.2 989.5 12.0
2014-Nov-11 23:30N 45°49' W 145°57'1 1.5 988.7 12.0
2014-Nov-11 22:30N 45°47' W 145°56'0 0.0 988.5 12.0
2014-Nov-11 21:30N 45°47' W 145°56'2 1.8 988.4 12.0
2014-Nov-11 20:30N 45°47' W 145°53'0 0.0 989.2 12.0
2014-Nov-11 19:30N 45°47' W 145°53'0 0.0 989.9 12.0
2014-Nov-11 18:30N 45°47' W 145°53'1 0.4 990.7 12.0
2014-Nov-11 16:30N 45°46' W 145°53'1 0.6 992.7 12.1
2014-Nov-11 15:30N 45°47' W 145°53'0 0.3 993.8 12.0
2014-Nov-11 14:30N 45°47' W 145°52'   995.1 12.0

Dump ship's entire track history